sensor_id;sensor_type;location;lat;lon;timestamp;P1;durP1;ratioP1;P2;durP2;ratioP2
35891;SDS011;21993;42.672;23.296;2023-04-21T00:01:46;9.43;;;6.70;;
35891;SDS011;21993;42.672;23.296;2023-04-21T00:04:12;10.03;;;7.17;;
35891;SDS011;21993;42.672;23.296;2023-04-21T00:06:39;10.80;;;7.80;;
35891;SDS011;21993;42.672;23.296;2023-04-21T00:09:06;14.53;;;6.80;;
35891;SDS011;21993;42.672;23.296;2023-04-21T00:11:32;12.17;;;7.37;;
35891;SDS011;21993;42.672;23.296;2023-04-21T00:13:57;7.30;;;6.50;;
35891;SDS011;21993;42.672;23.296;2023-04-21T00:16:23;12.57;;;7.00;;
35891;SDS011;21993;42.672;23.296;2023-04-21T00:18:48;8.83;;;7.17;;
35891;SDS011;21993;42.672;23.296;2023-04-21T00:21:13;8.93;;;6.73;;
35891;SDS011;21993;42.672;23.296;2023-04-21T00:23:40;9.10;;;7.27;;
35891;SDS011;21993;42.672;23.296;2023-04-21T00:26:05;8.40;;;6.83;;
35891;SDS011;21993;42.672;23.296;2023-04-21T00:28:31;11.63;;;6.50;;
35891;SDS011;21993;42.672;23.296;2023-04-21T00:30:56;10.10;;;6.97;;
35891;SDS011;21993;42.672;23.296;2023-04-21T00:33:22;9.80;;;6.63;;
35891;SDS011;21993;42.672;23.296;2023-04-21T00:35:47;9.30;;;7.07;;
35891;SDS011;21993;42.672;23.296;2023-04-21T00:38:12;12.33;;;7.07;;
35891;SDS011;21993;42.672;23.296;2023-04-21T00:40:38;9.80;;;7.10;;
35891;SDS011;21993;42.672;23.296;2023-04-21T00:43:06;9.10;;;6.60;;
35891;SDS011;21993;42.672;23.296;2023-04-21T00:45:32;11.83;;;7.37;;
35891;SDS011;21993;42.672;23.296;2023-04-21T00:47:57;11.30;;;6.77;;
35891;SDS011;21993;42.672;23.296;2023-04-21T00:50:23;11.47;;;6.73;;
35891;SDS011;21993;42.672;23.296;2023-04-21T00:52:49;8.87;;;6.40;;
35891;SDS011;21993;42.672;23.296;2023-04-21T00:55:15;9.50;;;6.97;;
35891;SDS011;21993;42.672;23.296;2023-04-21T00:57:40;10.00;;;6.80;;
35891;SDS011;21993;42.672;23.296;2023-04-21T01:00:06;10.67;;;5.90;;
35891;SDS011;21993;42.672;23.296;2023-04-21T01:02:36;11.43;;;7.63;;
35891;SDS011;21993;42.672;23.296;2023-04-21T01:05:04;8.93;;;6.20;;
35891;SDS011;21993;42.672;23.296;2023-04-21T01:07:31;9.70;;;6.83;;
35891;SDS011;21993;42.672;23.296;2023-04-21T01:09:56;11.60;;;6.80;;
35891;SDS011;21993;42.672;23.296;2023-04-21T01:12:23;9.47;;;6.50;;
35891;SDS011;21993;42.672;23.296;2023-04-21T01:14:49;8.13;;;6.27;;
35891;SDS011;21993;42.672;23.296;2023-04-21T01:17:14;10.27;;;6.50;;
35891;SDS011;21993;42.672;23.296;2023-04-21T01:19:43;10.77;;;6.90;;
35891;SDS011;21993;42.672;23.296;2023-04-21T01:22:10;9.60;;;7.03;;
35891;SDS011;21993;42.672;23.296;2023-04-21T01:24:40;8.17;;;6.90;;
35891;SDS011;21993;42.672;23.296;2023-04-21T01:27:07;8.60;;;6.17;;
35891;SDS011;21993;42.672;23.296;2023-04-21T01:29:35;7.60;;;5.90;;
35891;SDS011;21993;42.672;23.296;2023-04-21T01:32:08;8.07;;;5.73;;
35891;SDS011;21993;42.672;23.296;2023-04-21T01:34:37;8.37;;;6.67;;
35891;SDS011;21993;42.672;23.296;2023-04-21T01:37:06;10.10;;;6.23;;
35891;SDS011;21993;42.672;23.296;2023-04-21T01:39:33;6.97;;;5.80;;
35891;SDS011;21993;42.672;23.296;2023-04-21T01:42:01;9.10;;;6.90;;
35891;SDS011;21993;42.672;23.296;2023-04-21T01:44:27;7.13;;;6.37;;
35891;SDS011;21993;42.672;23.296;2023-04-21T01:46:52;9.83;;;6.57;;
35891;SDS011;21993;42.672;23.296;2023-04-21T01:49:17;7.33;;;6.50;;
35891;SDS011;21993;42.672;23.296;2023-04-21T01:51:43;10.87;;;6.67;;
35891;SDS011;21993;42.672;23.296;2023-04-21T01:54:08;10.00;;;6.80;;
35891;SDS011;21993;42.672;23.296;2023-04-21T01:56:34;9.63;;;6.90;;
35891;SDS011;21993;42.672;23.296;2023-04-21T01:58:59;8.13;;;6.47;;
35891;SDS011;21993;42.672;23.296;2023-04-21T02:01:25;7.37;;;6.13;;
35891;SDS011;21993;42.672;23.296;2023-04-21T02:03:50;10.33;;;5.60;;
35891;SDS011;21993;42.672;23.296;2023-04-21T02:06:16;10.03;;;6.27;;
35891;SDS011;21993;42.672;23.296;2023-04-21T02:08:41;6.70;;;5.60;;
35891;SDS011;21993;42.672;23.296;2023-04-21T02:11:07;9.40;;;6.73;;
35891;SDS011;21993;42.672;23.296;2023-04-21T02:13:32;9.30;;;7.00;;
35891;SDS011;21993;42.672;23.296;2023-04-21T02:15:58;9.43;;;6.67;;
35891;SDS011;21993;42.672;23.296;2023-04-21T02:18:23;9.23;;;6.40;;
35891;SDS011;21993;42.672;23.296;2023-04-21T02:20:49;9.23;;;6.50;;
35891;SDS011;21993;42.672;23.296;2023-04-21T02:23:15;9.60;;;6.80;;
35891;SDS011;21993;42.672;23.296;2023-04-21T02:25:40;8.57;;;6.43;;
35891;SDS011;21993;42.672;23.296;2023-04-21T02:28:06;10.37;;;6.47;;
35891;SDS011;21993;42.672;23.296;2023-04-21T02:30:32;10.60;;;6.63;;
35891;SDS011;21993;42.672;23.296;2023-04-21T02:32:58;8.83;;;7.17;;
35891;SDS011;21993;42.672;23.296;2023-04-21T02:35:23;8.67;;;7.33;;
35891;SDS011;21993;42.672;23.296;2023-04-21T02:37:49;9.50;;;6.90;;
35891;SDS011;21993;42.672;23.296;2023-04-21T02:40:14;9.13;;;6.67;;
35891;SDS011;21993;42.672;23.296;2023-04-21T02:42:40;7.63;;;6.83;;
35891;SDS011;21993;42.672;23.296;2023-04-21T02:45:05;10.03;;;6.77;;
35891;SDS011;21993;42.672;23.296;2023-04-21T02:47:31;12.43;;;7.33;;
35891;SDS011;21993;42.672;23.296;2023-04-21T02:49:57;12.33;;;7.07;;
35891;SDS011;21993;42.672;23.296;2023-04-21T02:52:22;9.83;;;6.73;;
35891;SDS011;21993;42.672;23.296;2023-04-21T02:54:48;8.33;;;6.47;;
35891;SDS011;21993;42.672;23.296;2023-04-21T02:57:14;8.43;;;7.10;;
35891;SDS011;21993;42.672;23.296;2023-04-21T02:59:40;8.97;;;7.20;;
35891;SDS011;21993;42.672;23.296;2023-04-21T03:02:05;8.83;;;6.67;;
35891;SDS011;21993;42.672;23.296;2023-04-21T03:04:31;9.17;;;7.70;;
35891;SDS011;21993;42.672;23.296;2023-04-21T03:06:56;9.73;;;7.00;;
35891;SDS011;21993;42.672;23.296;2023-04-21T03:09:22;7.93;;;6.83;;
35891;SDS011;21993;42.672;23.296;2023-04-21T03:11:47;7.97;;;6.63;;
35891;SDS011;21993;42.672;23.296;2023-04-21T03:14:12;7.90;;;6.20;;
35891;SDS011;21993;42.672;23.296;2023-04-21T03:16:38;10.70;;;7.63;;
35891;SDS011;21993;42.672;23.296;2023-04-21T03:19:03;8.17;;;6.67;;
35891;SDS011;21993;42.672;23.296;2023-04-21T03:21:29;12.73;;;7.27;;
35891;SDS011;21993;42.672;23.296;2023-04-21T03:23:55;9.00;;;6.90;;
35891;SDS011;21993;42.672;23.296;2023-04-21T03:26:21;8.40;;;6.53;;
35891;SDS011;21993;42.672;23.296;2023-04-21T03:28:46;9.80;;;6.87;;
35891;SDS011;21993;42.672;23.296;2023-04-21T03:31:12;11.23;;;6.77;;
35891;SDS011;21993;42.672;23.296;2023-04-21T03:33:37;10.90;;;7.47;;
35891;SDS011;21993;42.672;23.296;2023-04-21T03:36:02;8.33;;;6.90;;
35891;SDS011;21993;42.672;23.296;2023-04-21T03:38:28;8.60;;;6.43;;
35891;SDS011;21993;42.672;23.296;2023-04-21T03:40:53;9.17;;;7.13;;
35891;SDS011;21993;42.672;23.296;2023-04-21T03:43:19;9.37;;;6.93;;
35891;SDS011;21993;42.672;23.296;2023-04-21T03:45:44;9.07;;;7.23;;
35891;SDS011;21993;42.672;23.296;2023-04-21T03:48:10;9.57;;;6.67;;
35891;SDS011;21993;42.672;23.296;2023-04-21T03:50:36;7.80;;;6.33;;
35891;SDS011;21993;42.672;23.296;2023-04-21T03:53:02;9.00;;;7.67;;
35891;SDS011;21993;42.672;23.296;2023-04-21T03:55:27;14.30;;;7.10;;
35891;SDS011;21993;42.672;23.296;2023-04-21T03:57:53;10.37;;;7.70;;
35891;SDS011;21993;42.672;23.296;2023-04-21T04:00:18;11.43;;;7.83;;
35891;SDS011;21993;42.672;23.296;2023-04-21T04:02:45;11.60;;;7.70;;
35891;SDS011;21993;42.672;23.296;2023-04-21T04:05:10;8.43;;;7.30;;
35891;SDS011;21993;42.672;23.296;2023-04-21T04:07:36;10.73;;;7.47;;
35891;SDS011;21993;42.672;23.296;2023-04-21T04:10:01;11.03;;;8.27;;
35891;SDS011;21993;42.672;23.296;2023-04-21T04:12:27;10.83;;;7.40;;
35891;SDS011;21993;42.672;23.296;2023-04-21T04:14:52;13.43;;;8.33;;
35891;SDS011;21993;42.672;23.296;2023-04-21T04:17:17;10.53;;;8.17;;
35891;SDS011;21993;42.672;23.296;2023-04-21T04:19:43;13.00;;;8.83;;
35891;SDS011;21993;42.672;23.296;2023-04-21T04:22:08;12.13;;;7.57;;
35891;SDS011;21993;42.672;23.296;2023-04-21T04:24:33;10.60;;;8.63;;
35891;SDS011;21993;42.672;23.296;2023-04-21T04:26:59;13.10;;;8.43;;
35891;SDS011;21993;42.672;23.296;2023-04-21T04:29:27;9.57;;;7.50;;
35891;SDS011;21993;42.672;23.296;2023-04-21T04:31:53;9.83;;;7.70;;
35891;SDS011;21993;42.672;23.296;2023-04-21T04:34:18;9.13;;;8.07;;
35891;SDS011;21993;42.672;23.296;2023-04-21T04:36:45;11.50;;;8.40;;
35891;SDS011;21993;42.672;23.296;2023-04-21T04:39:11;11.80;;;7.87;;
35891;SDS011;21993;42.672;23.296;2023-04-21T04:41:37;10.27;;;7.60;;
35891;SDS011;21993;42.672;23.296;2023-04-21T04:44:03;10.33;;;8.87;;
35891;SDS011;21993;42.672;23.296;2023-04-21T04:46:30;11.03;;;7.80;;
35891;SDS011;21993;42.672;23.296;2023-04-21T04:48:55;11.60;;;8.03;;
35891;SDS011;21993;42.672;23.296;2023-04-21T04:51:21;10.57;;;8.43;;
35891;SDS011;21993;42.672;23.296;2023-04-21T04:53:47;14.07;;;9.17;;
35891;SDS011;21993;42.672;23.296;2023-04-21T04:56:13;11.57;;;7.97;;
35891;SDS011;21993;42.672;23.296;2023-04-21T04:58:38;12.50;;;9.23;;
35891;SDS011;21993;42.672;23.296;2023-04-21T05:01:10;11.50;;;8.67;;
35891;SDS011;21993;42.672;23.296;2023-04-21T05:03:40;13.83;;;8.40;;
35891;SDS011;21993;42.672;23.296;2023-04-21T05:06:08;12.17;;;8.90;;
35891;SDS011;21993;42.672;23.296;2023-04-21T05:08:34;13.73;;;8.47;;
35891;SDS011;21993;42.672;23.296;2023-04-21T05:10:59;13.20;;;8.47;;
35891;SDS011;21993;42.672;23.296;2023-04-21T05:13:25;10.57;;;7.80;;
35891;SDS011;21993;42.672;23.296;2023-04-21T05:15:55;12.67;;;8.50;;
35891;SDS011;21993;42.672;23.296;2023-04-21T05:18:26;13.33;;;8.07;;
35891;SDS011;21993;42.672;23.296;2023-04-21T05:20:52;12.23;;;8.60;;
35891;SDS011;21993;42.672;23.296;2023-04-21T05:23:17;13.03;;;8.03;;
35891;SDS011;21993;42.672;23.296;2023-04-21T05:25:43;8.27;;;6.87;;
35891;SDS011;21993;42.672;23.296;2023-04-21T05:28:08;11.67;;;8.40;;
35891;SDS011;21993;42.672;23.296;2023-04-21T05:30:34;11.10;;;7.33;;
35891;SDS011;21993;42.672;23.296;2023-04-21T05:32:59;10.83;;;7.73;;
35891;SDS011;21993;42.672;23.296;2023-04-21T05:35:25;10.23;;;7.70;;
35891;SDS011;21993;42.672;23.296;2023-04-21T05:37:50;10.37;;;7.70;;
35891;SDS011;21993;42.672;23.296;2023-04-21T05:40:16;11.63;;;7.93;;
35891;SDS011;21993;42.672;23.296;2023-04-21T05:42:41;11.13;;;7.80;;
35891;SDS011;21993;42.672;23.296;2023-04-21T05:45:07;13.87;;;8.33;;
35891;SDS011;21993;42.672;23.296;2023-04-21T05:47:32;13.87;;;9.93;;
35891;SDS011;21993;42.672;23.296;2023-04-21T05:49:57;11.60;;;8.70;;
35891;SDS011;21993;42.672;23.296;2023-04-21T05:52:23;12.17;;;7.50;;
35891;SDS011;21993;42.672;23.296;2023-04-21T05:54:48;18.30;;;9.40;;
35891;SDS011;21993;42.672;23.296;2023-04-21T05:57:14;10.50;;;7.70;;
35891;SDS011;21993;42.672;23.296;2023-04-21T05:59:40;14.07;;;7.77;;
35891;SDS011;21993;42.672;23.296;2023-04-21T06:02:06;9.20;;;7.10;;
35891;SDS011;21993;42.672;23.296;2023-04-21T06:04:31;9.70;;;7.80;;
35891;SDS011;21993;42.672;23.296;2023-04-21T06:06:57;11.57;;;8.27;;
35891;SDS011;21993;42.672;23.296;2023-04-21T06:09:22;10.60;;;7.90;;
35891;SDS011;21993;42.672;23.296;2023-04-21T06:11:48;15.97;;;8.07;;
35891;SDS011;21993;42.672;23.296;2023-04-21T06:14:14;10.57;;;7.83;;
35891;SDS011;21993;42.672;23.296;2023-04-21T06:16:40;11.17;;;9.33;;
35891;SDS011;21993;42.672;23.296;2023-04-21T06:19:05;13.07;;;8.30;;
35891;SDS011;21993;42.672;23.296;2023-04-21T06:21:30;13.50;;;8.27;;
35891;SDS011;21993;42.672;23.296;2023-04-21T06:23:56;9.23;;;7.70;;
35891;SDS011;21993;42.672;23.296;2023-04-21T06:26:22;13.03;;;8.20;;
35891;SDS011;21993;42.672;23.296;2023-04-21T06:28:47;11.87;;;7.40;;
35891;SDS011;21993;42.672;23.296;2023-04-21T06:31:13;9.23;;;7.23;;
35891;SDS011;21993;42.672;23.296;2023-04-21T06:33:39;9.87;;;7.97;;
35891;SDS011;21993;42.672;23.296;2023-04-21T06:36:05;9.07;;;7.63;;
35891;SDS011;21993;42.672;23.296;2023-04-21T06:38:31;10.33;;;8.00;;
35891;SDS011;21993;42.672;23.296;2023-04-21T06:40:56;12.20;;;7.37;;
35891;SDS011;21993;42.672;23.296;2023-04-21T06:43:22;11.07;;;7.07;;
35891;SDS011;21993;42.672;23.296;2023-04-21T06:45:47;8.77;;;7.23;;
35891;SDS011;21993;42.672;23.296;2023-04-21T06:48:13;9.63;;;7.17;;
35891;SDS011;21993;42.672;23.296;2023-04-21T06:50:38;12.17;;;7.40;;
35891;SDS011;21993;42.672;23.296;2023-04-21T06:53:04;9.83;;;7.00;;
35891;SDS011;21993;42.672;23.296;2023-04-21T06:55:29;9.40;;;7.13;;
35891;SDS011;21993;42.672;23.296;2023-04-21T06:57:55;10.33;;;6.80;;
35891;SDS011;21993;42.672;23.296;2023-04-21T07:00:20;11.67;;;7.03;;
35891;SDS011;21993;42.672;23.296;2023-04-21T07:02:46;8.43;;;7.13;;
35891;SDS011;21993;42.672;23.296;2023-04-21T07:05:12;9.57;;;6.67;;
35891;SDS011;21993;42.672;23.296;2023-04-21T07:07:37;10.27;;;7.90;;
35891;SDS011;21993;42.672;23.296;2023-04-21T07:10:03;7.60;;;6.80;;
35891;SDS011;21993;42.672;23.296;2023-04-21T07:12:28;7.77;;;6.67;;
35891;SDS011;21993;42.672;23.296;2023-04-21T07:53:49;8.63;;;6.17;;
35891;SDS011;21993;42.672;23.296;2023-04-21T07:56:14;11.10;;;7.00;;
35891;SDS011;21993;42.672;23.296;2023-04-21T07:58:40;9.97;;;7.10;;
35891;SDS011;21993;42.672;23.296;2023-04-21T08:01:05;10.17;;;6.87;;
35891;SDS011;21993;42.672;23.296;2023-04-21T08:03:31;7.63;;;6.10;;
35891;SDS011;21993;42.672;23.296;2023-04-21T08:05:56;8.27;;;6.03;;
35891;SDS011;21993;42.672;23.296;2023-04-21T08:08:22;9.83;;;5.90;;
35891;SDS011;21993;42.672;23.296;2023-04-21T08:10:47;8.00;;;6.20;;
35891;SDS011;21993;42.672;23.296;2023-04-21T08:13:13;9.17;;;6.73;;
35891;SDS011;21993;42.672;23.296;2023-04-21T08:15:38;9.03;;;6.73;;
35891;SDS011;21993;42.672;23.296;2023-04-21T08:18:04;8.60;;;6.50;;
35891;SDS011;21993;42.672;23.296;2023-04-21T08:20:29;9.03;;;6.17;;
35891;SDS011;21993;42.672;23.296;2023-04-21T08:22:55;10.70;;;7.00;;
35891;SDS011;21993;42.672;23.296;2023-04-21T08:25:20;11.00;;;6.50;;
35891;SDS011;21993;42.672;23.296;2023-04-21T08:27:46;8.10;;;6.07;;
35891;SDS011;21993;42.672;23.296;2023-04-21T08:30:11;10.33;;;5.73;;
35891;SDS011;21993;42.672;23.296;2023-04-21T08:32:37;9.77;;;5.80;;
35891;SDS011;21993;42.672;23.296;2023-04-21T08:35:02;11.70;;;6.30;;
35891;SDS011;21993;42.672;23.296;2023-04-21T08:37:28;9.27;;;6.43;;
35891;SDS011;21993;42.672;23.296;2023-04-21T08:39:53;7.67;;;6.30;;
35891;SDS011;21993;42.672;23.296;2023-04-21T08:42:19;7.90;;;5.73;;
35891;SDS011;21993;42.672;23.296;2023-04-21T08:44:45;8.83;;;6.33;;
35891;SDS011;21993;42.672;23.296;2023-04-21T08:47:12;6.83;;;5.70;;
35891;SDS011;21993;42.672;23.296;2023-04-21T08:49:39;12.03;;;7.00;;
35891;SDS011;21993;42.672;23.296;2023-04-21T08:52:06;9.70;;;6.13;;
35891;SDS011;21993;42.672;23.296;2023-04-21T08:54:32;8.13;;;6.10;;
35891;SDS011;21993;42.672;23.296;2023-04-21T08:57:00;6.37;;;5.67;;
35891;SDS011;21993;42.672;23.296;2023-04-21T08:59:27;9.77;;;6.27;;
35891;SDS011;21993;42.672;23.296;2023-04-21T09:02:12;8.23;;;6.20;;
35891;SDS011;21993;42.672;23.296;2023-04-21T09:04:40;7.40;;;6.00;;
35891;SDS011;21993;42.672;23.296;2023-04-21T09:07:07;6.47;;;5.77;;
35891;SDS011;21993;42.672;23.296;2023-04-21T09:09:49;7.63;;;5.37;;
35891;SDS011;21993;42.672;23.296;2023-04-21T09:12:16;7.73;;;5.40;;
35891;SDS011;21993;42.672;23.296;2023-04-21T09:14:42;12.23;;;5.40;;
35891;SDS011;21993;42.672;23.296;2023-04-21T09:17:07;8.73;;;5.43;;
35891;SDS011;21993;42.672;23.296;2023-04-21T09:19:33;7.30;;;5.27;;
35891;SDS011;21993;42.672;23.296;2023-04-21T09:21:59;8.67;;;5.90;;
35891;SDS011;21993;42.672;23.296;2023-04-21T09:24:25;6.70;;;5.50;;
35891;SDS011;21993;42.672;23.296;2023-04-21T09:26:51;6.50;;;5.40;;
35891;SDS011;21993;42.672;23.296;2023-04-21T09:29:17;5.67;;;5.13;;
35891;SDS011;21993;42.672;23.296;2023-04-21T09:31:45;6.73;;;5.13;;
35891;SDS011;21993;42.672;23.296;2023-04-21T09:34:19;8.00;;;5.30;;
35891;SDS011;21993;42.672;23.296;2023-04-21T09:37:00;6.23;;;4.80;;
35891;SDS011;21993;42.672;23.296;2023-04-21T09:39:28;8.57;;;4.47;;
35891;SDS011;21993;42.672;23.296;2023-04-21T09:41:55;7.63;;;5.50;;
35891;SDS011;21993;42.672;23.296;2023-04-21T09:44:21;6.33;;;5.00;;
35891;SDS011;21993;42.672;23.296;2023-04-21T09:46:47;6.50;;;5.30;;
35891;SDS011;21993;42.672;23.296;2023-04-21T09:49:15;6.37;;;4.97;;
35891;SDS011;21993;42.672;23.296;2023-04-21T09:51:42;7.00;;;5.10;;
35891;SDS011;21993;42.672;23.296;2023-04-21T09:54:17;6.87;;;5.50;;
35891;SDS011;21993;42.672;23.296;2023-04-21T09:56:46;6.27;;;5.27;;
35891;SDS011;21993;42.672;23.296;2023-04-21T09:59:16;5.93;;;4.63;;
35891;SDS011;21993;42.672;23.296;2023-04-21T10:01:46;6.73;;;4.97;;
35891;SDS011;21993;42.672;23.296;2023-04-21T10:04:14;12.77;;;8.80;;
35891;SDS011;21993;42.672;23.296;2023-04-21T10:06:39;7.00;;;5.03;;
35891;SDS011;21993;42.672;23.296;2023-04-21T10:09:05;4.70;;;4.20;;
35891;SDS011;21993;42.672;23.296;2023-04-21T10:11:33;6.50;;;4.83;;
35891;SDS011;21993;42.672;23.296;2023-04-21T10:14:01;7.87;;;4.37;;
35891;SDS011;21993;42.672;23.296;2023-04-21T10:16:27;6.10;;;4.10;;
35891;SDS011;21993;42.672;23.296;2023-04-21T10:18:52;5.00;;;4.50;;
35891;SDS011;21993;42.672;23.296;2023-04-21T10:21:18;7.47;;;5.43;;
35891;SDS011;21993;42.672;23.296;2023-04-21T10:26:25;7.37;;;5.27;;
35891;SDS011;21993;42.672;23.296;2023-04-21T10:28:57;8.37;;;5.43;;
35891;SDS011;21993;42.672;23.296;2023-04-21T10:31:35;7.60;;;5.20;;
35891;SDS011;21993;42.672;23.296;2023-04-21T10:36:30;9.87;;;5.50;;
35891;SDS011;21993;42.672;23.296;2023-04-21T10:38:55;9.80;;;5.80;;
35891;SDS011;21993;42.672;23.296;2023-04-21T10:41:25;7.60;;;4.80;;
35891;SDS011;21993;42.672;23.296;2023-04-21T10:43:52;8.93;;;5.83;;
35891;SDS011;21993;42.672;23.296;2023-04-21T10:46:30;8.83;;;5.87;;
35891;SDS011;21993;42.672;23.296;2023-04-21T10:49:10;8.60;;;5.20;;
35891;SDS011;21993;42.672;23.296;2023-04-21T10:54:35;7.60;;;6.20;;
35891;SDS011;21993;42.672;23.296;2023-04-21T10:57:06;10.63;;;6.00;;
35891;SDS011;21993;42.672;23.296;2023-04-21T10:59:34;9.13;;;5.50;;
35891;SDS011;21993;42.672;23.296;2023-04-21T11:02:01;9.30;;;5.43;;
35891;SDS011;21993;42.672;23.296;2023-04-21T11:04:30;6.70;;;5.40;;
35891;SDS011;21993;42.672;23.296;2023-04-21T11:07:05;8.73;;;5.67;;
35891;SDS011;21993;42.672;23.296;2023-04-21T11:09:34;8.23;;;5.10;;
35891;SDS011;21993;42.672;23.296;2023-04-21T11:12:02;7.50;;;4.47;;
35891;SDS011;21993;42.672;23.296;2023-04-21T11:14:31;5.73;;;4.10;;
35891;SDS011;21993;42.672;23.296;2023-04-21T11:16:56;6.93;;;4.60;;
35891;SDS011;21993;42.672;23.296;2023-04-21T11:19:22;7.90;;;5.17;;
35891;SDS011;21993;42.672;23.296;2023-04-21T11:21:49;14.17;;;5.93;;
35891;SDS011;21993;42.672;23.296;2023-04-21T11:24:14;6.10;;;4.73;;
35891;SDS011;21993;42.672;23.296;2023-04-21T11:26:40;4.57;;;4.17;;
35891;SDS011;21993;42.672;23.296;2023-04-21T11:29:09;9.43;;;5.13;;
35891;SDS011;21993;42.672;23.296;2023-04-21T11:31:36;6.67;;;4.50;;
35891;SDS011;21993;42.672;23.296;2023-04-21T11:34:04;7.33;;;4.13;;
35891;SDS011;21993;42.672;23.296;2023-04-21T11:36:41;5.63;;;4.67;;
35891;SDS011;21993;42.672;23.296;2023-04-21T11:39:12;6.30;;;5.37;;
35891;SDS011;21993;42.672;23.296;2023-04-21T11:41:43;6.50;;;4.77;;
35891;SDS011;21993;42.672;23.296;2023-04-21T11:44:11;6.87;;;4.60;;
35891;SDS011;21993;42.672;23.296;2023-04-21T11:46:43;6.77;;;3.90;;
35891;SDS011;21993;42.672;23.296;2023-04-21T11:49:10;8.03;;;4.40;;
35891;SDS011;21993;42.672;23.296;2023-04-21T11:51:38;5.67;;;4.63;;
35891;SDS011;21993;42.672;23.296;2023-04-21T11:54:05;5.37;;;4.43;;
35891;SDS011;21993;42.672;23.296;2023-04-21T11:56:39;8.70;;;4.43;;
35891;SDS011;21993;42.672;23.296;2023-04-21T11:59:10;6.73;;;4.73;;
35891;SDS011;21993;42.672;23.296;2023-04-21T12:04:16;4.93;;;3.93;;
35891;SDS011;21993;42.672;23.296;2023-04-21T12:06:46;4.77;;;4.10;;
35891;SDS011;21993;42.672;23.296;2023-04-21T12:09:19;10.10;;;4.43;;
35891;SDS011;21993;42.672;23.296;2023-04-21T12:11:49;6.83;;;4.70;;
35891;SDS011;21993;42.672;23.296;2023-04-21T12:14:16;5.60;;;3.57;;
35891;SDS011;21993;42.672;23.296;2023-04-21T12:16:43;3.60;;;3.20;;
35891;SDS011;21993;42.672;23.296;2023-04-21T12:19:12;4.83;;;3.37;;
35891;SDS011;21993;42.672;23.296;2023-04-21T12:21:51;8.37;;;4.20;;
35891;SDS011;21993;42.672;23.296;2023-04-21T12:24:17;5.37;;;3.70;;
35891;SDS011;21993;42.672;23.296;2023-04-21T12:26:43;7.63;;;4.10;;
35891;SDS011;21993;42.672;23.296;2023-04-21T12:29:08;8.63;;;4.10;;
35891;SDS011;21993;42.672;23.296;2023-04-21T12:31:33;8.23;;;4.90;;
35891;SDS011;21993;42.672;23.296;2023-04-21T12:33:59;6.13;;;4.50;;
35891;SDS011;21993;42.672;23.296;2023-04-21T12:36:24;8.87;;;4.60;;
35891;SDS011;21993;42.672;23.296;2023-04-21T12:38:51;7.00;;;5.10;;
35891;SDS011;21993;42.672;23.296;2023-04-21T12:41:17;7.90;;;5.23;;
35891;SDS011;21993;42.672;23.296;2023-04-21T12:43:43;8.30;;;4.97;;
35891;SDS011;21993;42.672;23.296;2023-04-21T12:46:08;8.53;;;5.27;;
35891;SDS011;21993;42.672;23.296;2023-04-21T12:48:33;8.53;;;4.50;;
35891;SDS011;21993;42.672;23.296;2023-04-21T12:50:59;6.70;;;4.60;;
35891;SDS011;21993;42.672;23.296;2023-04-21T12:53:25;5.27;;;4.50;;
35891;SDS011;21993;42.672;23.296;2023-04-21T12:55:50;8.80;;;4.77;;
35891;SDS011;21993;42.672;23.296;2023-04-21T12:58:16;6.60;;;5.00;;
35891;SDS011;21993;42.672;23.296;2023-04-21T13:00:41;7.17;;;4.60;;
35891;SDS011;21993;42.672;23.296;2023-04-21T13:03:07;11.43;;;5.70;;
35891;SDS011;21993;42.672;23.296;2023-04-21T13:05:32;7.30;;;5.10;;
35891;SDS011;21993;42.672;23.296;2023-04-21T13:07:58;6.00;;;4.63;;
35891;SDS011;21993;42.672;23.296;2023-04-21T13:10:23;5.13;;;4.60;;
35891;SDS011;21993;42.672;23.296;2023-04-21T13:12:49;7.93;;;4.63;;
35891;SDS011;21993;42.672;23.296;2023-04-21T13:15:15;6.37;;;4.53;;
35891;SDS011;21993;42.672;23.296;2023-04-21T13:17:40;6.83;;;4.10;;
35891;SDS011;21993;42.672;23.296;2023-04-21T13:20:06;9.07;;;5.30;;
35891;SDS011;21993;42.672;23.296;2023-04-21T13:22:31;6.87;;;4.97;;
35891;SDS011;21993;42.672;23.296;2023-04-21T13:24:57;5.10;;;4.60;;
35891;SDS011;21993;42.672;23.296;2023-04-21T13:27:23;7.60;;;5.13;;
35891;SDS011;21993;42.672;23.296;2023-04-21T13:29:48;8.37;;;5.43;;
35891;SDS011;21993;42.672;23.296;2023-04-21T13:32:14;9.77;;;4.70;;
35891;SDS011;21993;42.672;23.296;2023-04-21T13:34:40;5.57;;;4.20;;
35891;SDS011;21993;42.672;23.296;2023-04-21T13:37:05;6.87;;;5.03;;
35891;SDS011;21993;42.672;23.296;2023-04-21T13:39:33;8.53;;;5.10;;
35891;SDS011;21993;42.672;23.296;2023-04-21T13:41:58;8.23;;;5.00;;
35891;SDS011;21993;42.672;23.296;2023-04-21T13:44:24;9.77;;;5.23;;
35891;SDS011;21993;42.672;23.296;2023-04-21T13:46:49;7.73;;;5.63;;
35891;SDS011;21993;42.672;23.296;2023-04-21T13:49:16;8.73;;;5.03;;
35891;SDS011;21993;42.672;23.296;2023-04-21T13:51:42;10.37;;;5.10;;
35891;SDS011;21993;42.672;23.296;2023-04-21T13:54:07;8.33;;;4.90;;
35891;SDS011;21993;42.672;23.296;2023-04-21T13:56:32;7.80;;;5.43;;
35891;SDS011;21993;42.672;23.296;2023-04-21T13:58:58;11.37;;;5.97;;
35891;SDS011;21993;42.672;23.296;2023-04-21T14:01:24;14.27;;;8.40;;
35891;SDS011;21993;42.672;23.296;2023-04-21T14:03:49;14.57;;;7.87;;
35891;SDS011;21993;42.672;23.296;2023-04-21T14:06:15;11.07;;;6.80;;
35891;SDS011;21993;42.672;23.296;2023-04-21T14:08:41;8.80;;;5.93;;
35891;SDS011;21993;42.672;23.296;2023-04-21T14:11:06;8.33;;;6.00;;
35891;SDS011;21993;42.672;23.296;2023-04-21T14:13:32;10.57;;;6.00;;
35891;SDS011;21993;42.672;23.296;2023-04-21T14:15:57;9.70;;;6.40;;
35891;SDS011;21993;42.672;23.296;2023-04-21T14:18:23;7.23;;;5.70;;
35891;SDS011;21993;42.672;23.296;2023-04-21T14:20:48;11.13;;;5.30;;
35891;SDS011;21993;42.672;23.296;2023-04-21T14:23:14;8.27;;;5.57;;
35891;SDS011;21993;42.672;23.296;2023-04-21T14:25:40;8.13;;;5.33;;
35891;SDS011;21993;42.672;23.296;2023-04-21T14:28:05;8.67;;;6.20;;
35891;SDS011;21993;42.672;23.296;2023-04-21T14:30:33;12.23;;;5.93;;
35891;SDS011;21993;42.672;23.296;2023-04-21T14:33:02;6.00;;;4.97;;
35891;SDS011;21993;42.672;23.296;2023-04-21T14:35:28;6.97;;;5.67;;
35891;SDS011;21993;42.672;23.296;2023-04-21T14:37:53;7.83;;;5.90;;
35891;SDS011;21993;42.672;23.296;2023-04-21T14:40:19;9.83;;;5.83;;
35891;SDS011;21993;42.672;23.296;2023-04-21T14:42:44;8.77;;;5.73;;
35891;SDS011;21993;42.672;23.296;2023-04-21T14:45:10;8.77;;;5.90;;
35891;SDS011;21993;42.672;23.296;2023-04-21T14:47:36;8.07;;;5.80;;
35891;SDS011;21993;42.672;23.296;2023-04-21T14:50:02;7.03;;;5.53;;
35891;SDS011;21993;42.672;23.296;2023-04-21T14:52:28;6.93;;;5.57;;
35891;SDS011;21993;42.672;23.296;2023-04-21T14:54:54;10.13;;;6.30;;
35891;SDS011;21993;42.672;23.296;2023-04-21T14:57:19;7.07;;;5.53;;
35891;SDS011;21993;42.672;23.296;2023-04-21T14:59:46;9.90;;;5.80;;
35891;SDS011;21993;42.672;23.296;2023-04-21T15:02:12;7.30;;;6.07;;
35891;SDS011;21993;42.672;23.296;2023-04-21T15:04:37;11.60;;;6.17;;
35891;SDS011;21993;42.672;23.296;2023-04-21T15:07:03;8.57;;;6.20;;
35891;SDS011;21993;42.672;23.296;2023-04-21T15:09:28;7.50;;;5.93;;
35891;SDS011;21993;42.672;23.296;2023-04-21T15:11:54;8.03;;;6.13;;
35891;SDS011;21993;42.672;23.296;2023-04-21T15:14:20;9.90;;;6.10;;
35891;SDS011;21993;42.672;23.296;2023-04-21T15:16:46;9.20;;;7.73;;